Time;durP1;ratioP1;P1;durP2;ratioP2;P2;SDS_P1;SDS_P2;PMS_P1;PMS_P2;Temp;Humidity;BMP_temperature;BMP_pressure;BME280_temperature;BME280_humidity;BME280_pressure;Samples;Min_cycle;Max_cycle;Signal;HPM_P1;HPM_P2
2022/08/31 00:04:54;;;;;;;1.85;1.10;;;;;;;15.58;100.00;99595.27;1737226;80;21058;-55
2022/08/31 00:07:21;;;;;;;5.00;1.40;;;;;;;15.60;100.00;99597.39;1738640;80;20954;-55
2022/08/31 00:09:47;;;;;;;2.60;1.45;;;;;;;15.63;100.00;99595.83;1737483;80;21081;-55
2022/08/31 00:12:14;;;;;;;3.67;1.40;;;;;;;15.65;100.00;99596.08;1718046;80;20982;-55
2022/08/31 00:14:42;;;;;;;1.62;1.27;;;;;;;15.66;100.00;99599.17;1739958;80;21408;-55
2022/08/31 00:17:08;;;;;;;1.92;1.47;;;;;;;15.67;100.00;99594.13;1740813;81;20936;-55
2022/08/31 00:19:35;;;;;;;4.37;1.55;;;;;;;15.68;100.00;99597.23;1736741;80;20884;-55
2022/08/31 00:22:01;;;;;;;2.25;1.40;;;;;;;15.66;100.00;99604.60;1739101;80;21237;-55
2022/08/31 00:24:27;;;;;;;2.22;1.17;;;;;;;15.65;100.00;99603.38;1738421;80;21039;-55
2022/08/31 00:26:54;;;;;;;2.95;1.05;;;;;;;15.62;100.00;99603.59;1740788;81;21412;-55
2022/08/31 00:29:20;;;;;;;3.75;1.42;;;;;;;15.60;100.00;99604.18;1731367;80;21066;-55
2022/08/31 00:31:47;;;;;;;2.25;1.32;;;;;;;15.61;100.00;99605.92;1735722;80;21113;-55
2022/08/31 00:34:13;;;;;;;3.83;2.30;;;;;;;15.59;100.00;99602.44;1738684;80;21596;-55
2022/08/31 00:36:40;;;;;;;4.33;1.60;;;;;;;15.54;100.00;99600.55;1732198;80;21351;-55
2022/08/31 00:39:07;;;;;;;2.67;1.67;;;;;;;15.48;100.00;99594.53;1732554;80;21032;-55
2022/08/31 00:41:36;;;;;;;2.37;2.00;;;;;;;15.45;100.00;99597.97;1735447;80;21568;-55
2022/08/31 00:44:06;;;;;;;1.95;1.70;;;;;;;15.44;100.00;99600.30;1735286;80;21051;-55
2022/08/31 00:46:37;;;;;;;2.60;1.67;;;;;;;15.43;100.00;99600.78;1735888;80;21079;-55
2022/08/31 00:49:16;;;;;;;2.92;1.60;;;;;;;15.40;100.00;99598.28;1738826;80;21008;-55
2022/08/31 00:51:56;;;;;;;2.47;1.25;;;;;;;15.35;100.00;99605.02;1741349;80;21110;-55
2022/08/31 00:54:43;;;;;;;3.92;1.60;;;;;;;15.29;100.00;99604.09;1735023;80;21057;-55
2022/08/31 00:57:10;;;;;;;3.87;1.50;;;;;;;15.21;100.00;99608.70;1739084;80;21059;-55
2022/08/31 00:59:37;;;;;;;4.47;1.50;;;;;;;15.20;100.00;99610.16;1738016;80;21238;-55
2022/08/31 01:02:05;;;;;;;3.37;1.37;;;;;;;15.20;100.00;99604.25;1710168;80;21089;-55
2022/08/31 01:04:31;;;;;;;1.75;1.45;;;;;;;15.22;100.00;99606.38;1698571;82;21041;-55
2022/08/31 01:06:58;;;;;;;3.40;1.72;;;;;;;15.23;100.00;99609.92;1698735;82;21018;-55
2022/08/31 01:09:25;;;;;;;3.35;1.40;;;;;;;15.21;100.00;99605.98;1696764;82;21097;-55
2022/08/31 01:11:51;;;;;;;5.60;1.60;;;;;;;15.17;100.00;99612.58;1702362;82;21508;-55
2022/08/31 01:14:18;;;;;;;4.70;2.42;;;;;;;15.10;100.00;99610.79;1697442;82;21496;-55
2022/08/31 01:16:48;;;;;;;2.37;1.25;;;;;;;15.04;100.00;99607.64;1703309;83;21049;-55
2022/08/31 01:19:40;;;;;;;2.30;1.10;;;;;;;15.03;100.00;99610.84;1704080;83;21076;-53
2022/08/31 01:22:40;;;;;;;2.52;1.07;;;;;;;15.02;100.00;99615.00;1672829;84;21521;-53
2022/08/31 01:25:06;;;;;;;2.05;1.10;;;;;;;14.99;100.00;99611.13;1667372;84;21531;-54
2022/08/31 01:27:34;;;;;;;1.50;1.10;;;;;;;14.95;100.00;99609.14;1659882;84;21093;-53
2022/08/31 01:30:06;;;;;;;1.40;1.15;;;;;;;14.93;100.00;99615.62;1681469;83;21135;-53
2022/08/31 01:32:33;;;;;;;2.30;1.10;;;;;;;14.93;100.00;99611.56;1705713;82;21030;-53
2022/08/31 01:34:59;;;;;;;2.77;1.80;;;;;;;14.92;100.00;99609.34;1701476;82;21106;-53
2022/08/31 01:37:27;;;;;;;4.30;1.52;;;;;;;14.91;100.00;99611.66;1706241;82;21105;-54
2022/08/31 01:39:53;;;;;;;3.35;1.10;;;;;;;14.93;100.00;99612.92;1707255;82;21074;-53
2022/08/31 01:42:21;;;;;;;1.57;1.40;;;;;;;14.93;100.00;99608.37;1703902;82;21111;-56
2022/08/31 01:44:47;;;;;;;4.40;1.70;;;;;;;14.92;100.00;99607.98;1704319;82;21502;-56
2022/08/31 01:47:14;;;;;;;1.95;1.20;;;;;;;14.90;100.00;99609.92;1704678;82;21144;-56
2022/08/31 01:49:40;;;;;;;1.50;1.30;;;;;;;14.89;100.00;99604.11;1705229;82;21145;-56
2022/08/31 01:52:06;;;;;;;1.92;1.20;;;;;;;14.87;100.00;99606.56;1701086;82;22420;-56
2022/08/31 01:54:33;;;;;;;2.27;1.05;;;;;;;14.83;100.00;99603.67;1657823;84;21066;-56
2022/08/31 01:57:02;;;;;;;2.62;1.42;;;;;;;14.80;100.00;99600.67;1656545;84;21161;-56
2022/08/31 01:59:30;;;;;;;2.58;1.25;;;;;;;14.81;100.00;99600.19;1657882;84;21470;-56
2022/08/31 02:02:14;;;;;;;4.40;1.40;;;;;;;14.83;100.00;99600.96;1701334;81;21524;-56
2022/08/31 02:04:41;;;;;;;2.70;1.10;;;;;;;14.83;100.00;99595.05;1708747;82;21026;-56
2022/08/31 02:07:07;;;;;;;1.50;1.40;;;;;;;14.84;100.00;99594.09;1704255;82;21501;-56
2022/08/31 02:09:33;;;;;;;3.12;1.55;;;;;;;14.87;100.00;99589.83;1692853;82;21074;-56
2022/08/31 02:12:00;;;;;;;4.45;1.77;;;;;;;14.90;100.00;99593.66;1694316;82;21661;-56
2022/08/31 02:14:26;;;;;;;2.92;1.70;;;;;;;14.94;100.00;99586.20;1699965;82;21112;-56
2022/08/31 02:16:53;;;;;;;3.00;1.87;;;;;;;14.95;100.00;99586.09;1702087;82;21071;-57
2022/08/31 02:19:19;;;;;;;3.20;2.77;;;;;;;14.96;100.00;99577.48;1701600;83;21045;-56
2022/08/31 02:21:46;;;;;;;5.60;2.40;;;;;;;14.94;100.00;99578.94;1702941;83;21046;-56
2022/08/31 02:24:12;;;;;;;3.58;2.33;;;;;;;14.90;100.00;99576.05;1667647;84;21584;-56
2022/08/31 02:26:39;;;;;;;3.92;1.82;;;;;;;14.82;100.00;99587.89;1697161;82;21607;-56
2022/08/31 02:29:10;;;;;;;2.17;1.90;;;;;;;14.70;100.00;99580.63;1706554;82;21031;-56
2022/08/31 02:31:34;;;;;;;2.67;1.70;;;;;;;14.61;100.00;99583.95;1704098;82;21025;-56
2022/08/31 02:34:01;;;;;;;2.30;1.60;;;;;;;14.57;100.00;99585.11;1668113;84;21084;-56
2022/08/31 02:36:30;;;;;;;2.42;1.57;;;;;;;14.55;100.00;99588.40;1658670;84;21343;-56
2022/08/31 02:38:57;;;;;;;3.58;1.75;;;;;;;14.57;100.00;99590.53;1658137;84;21459;-56
2022/08/31 02:41:24;;;;;;;2.40;1.52;;;;;;;14.60;100.00;99582.20;1666638;84;20938;-56
2022/08/31 02:43:50;;;;;;;2.90;1.85;;;;;;;14.66;100.00;99592.62;1664693;84;21105;-56
2022/08/31 02:46:16;;;;;;;2.40;1.62;;;;;;;14.68;100.00;99583.42;1660563;84;21453;-56
2022/08/31 02:48:45;;;;;;;1.98;1.77;;;;;;;14.67;100.00;99584.39;1706201;82;20927;-56
2022/08/31 02:51:13;;;;;;;3.00;1.75;;;;;;;14.67;100.00;99584.39;1703763;82;21088;-56
2022/08/31 02:53:39;;;;;;;5.05;1.35;;;;;;;14.64;100.00;99577.81;1713547;82;21450;-56
2022/08/31 02:56:06;;;;;;;3.65;1.35;;;;;;;14.62;100.00;99588.40;1711118;82;20959;-56
2022/08/31 02:58:35;;;;;;;5.00;1.17;;;;;;;14.57;100.00;99593.23;1702931;83;20982;-56
2022/08/31 03:01:01;;;;;;;1.20;0.95;;;;;;;14.54;100.00;99588.92;1703128;82;21029;-56
2022/08/31 03:03:29;;;;;;;3.10;1.17;;;;;;;14.50;100.00;99590.08;1678387;83;21230;-56
2022/08/31 03:05:56;;;;;;;2.85;1.02;;;;;;;14.50;100.00;99594.63;1676780;83;20898;-56
2022/08/31 03:08:22;;;;;;;3.30;1.42;;;;;;;14.52;100.00;99592.69;1683475;83;20915;-56
2022/08/31 03:10:49;;;;;;;1.35;1.00;;;;;;;14.53;100.00;99594.43;1677085;83;20934;-56
2022/08/31 03:15:52;;;;;;;4.50;1.43;;;;;;;14.53;100.00;99584.95;1789013;78;24802;-56
2022/08/31 03:18:19;;;;;;;3.55;1.50;;;;;;;14.45;100.00;99583.24;1763707;79;21905;-56
2022/08/31 03:20:45;;;;;;;2.17;1.40;;;;;;;14.44;100.00;99585.56;1767496;79;21137;-56
2022/08/31 03:23:14;;;;;;;3.92;0.93;;;;;;;14.42;100.00;99588.36;1762916;79;21045;-55
2022/08/31 03:25:41;;;;;;;1.80;1.05;;;;;;;14.43;100.00;99589.23;1765724;79;21008;-55
2022/08/31 03:28:09;;;;;;;3.10;1.05;;;;;;;14.43;100.00;99587.88;1760944;79;21017;-56
2022/08/31 03:30:38;;;;;;;1.55;1.30;;;;;;;14.43;100.00;99594.17;1740234;80;21057;-56
2022/08/31 03:33:07;;;;;;;1.35;0.95;;;;;;;14.45;100.00;99589.53;1717733;79;21143;-55
2022/08/31 03:35:34;;;;;;;2.10;1.10;;;;;;;14.50;100.00;99587.85;1770359;79;20958;-56
2022/08/31 03:38:02;;;;;;;1.20;1.00;;;;;;;14.52;100.00;99588.14;1762464;79;21032;-56
2022/08/31 03:40:29;;;;;;;1.30;1.20;;;;;;;14.55;100.00;99592.46;1768222;79;21076;-56
2022/08/31 03:42:57;;;;;;;1.52;1.12;;;;;;;14.56;100.00;99595.08;1760541;79;21048;-56
2022/08/31 03:45:24;;;;;;;2.52;1.30;;;;;;;14.57;100.00;99588.69;1763073;79;22319;-56
2022/08/31 03:47:51;;;;;;;7.50;1.30;;;;;;;14.60;100.00;99595.75;1766776;79;21539;-56
2022/08/31 03:50:17;;;;;;;1.77;1.10;;;;;;;14.64;100.00;99595.91;1759924;79;21033;-56
2022/08/31 03:52:55;;;;;;;1.47;1.37;;;;;;;14.66;100.00;99601.62;1767630;79;21080;-56
2022/08/31 03:55:22;;;;;;;2.27;1.25;;;;;;;14.67;100.00;99599.78;1741517;79;21054;-56
2022/08/31 03:57:50;;;;;;;3.25;1.30;;;;;;;14.66;100.00;99594.84;1756220;80;22263;-56
2022/08/31 04:00:17;;;;;;;2.42;1.10;;;;;;;14.67;100.00;99597.94;1754948;80;22255;-55
2022/08/31 04:02:46;;;;;;;3.72;1.37;;;;;;;14.73;100.00;99596.64;1750703;80;21061;-55
2022/08/31 04:05:33;;;;;;;3.58;1.20;;;;;;;14.82;100.00;99600.09;1755494;80;21501;-55
2022/08/31 04:08:18;;;;;;;1.10;0.90;;;;;;;15.01;100.00;99601.93;1755806;80;21110;-55
2022/08/31 04:10:49;;;;;;;1.75;1.05;;;;;;;15.23;100.00;99590.45;1749596;80;22164;-55
2022/08/31 04:13:35;;;;;;;1.40;1.30;;;;;;;15.42;100.00;99595.46;1742157;80;21059;-55
2022/08/31 04:16:21;;;;;;;4.50;1.20;;;;;;;15.65;100.00;99596.59;1755874;80;21082;-55
2022/08/31 04:18:55;;;;;;;4.22;1.10;;;;;;;15.93;100.00;99595.45;1736654;80;21061;-55
2022/08/31 04:21:24;;;;;;;3.02;1.10;;;;;;;16.25;100.00;99589.88;1727338;80;21140;-55
2022/08/31 04:23:52;;;;;;;2.92;1.20;;;;;;;16.58;100.00;99595.55;1754738;80;21139;-55
2022/08/31 04:26:28;;;;;;;1.40;0.98;;;;;;;16.86;100.00;99595.69;1758062;80;21117;-55
2022/08/31 04:28:54;;;;;;;3.80;1.40;;;;;;;17.03;100.00;99595.75;1754759;80;21044;-54
2022/08/31 04:31:22;;;;;;;1.20;1.10;;;;;;;17.11;100.00;99593.80;1758365;80;21105;-55
2022/08/31 04:33:49;;;;;;;4.35;1.00;;;;;;;17.16;100.00;99592.47;1755665;80;21017;-55
2022/08/31 04:36:19;;;;;;;2.52;1.10;;;;;;;17.17;100.00;99588.77;1683541;83;21778;-55
2022/08/31 04:38:49;;;;;;;2.02;0.90;;;;;;;17.22;100.00;99599.27;1693454;83;22451;-55
2022/08/31 04:41:18;;;;;;;3.60;1.35;;;;;;;17.34;100.00;99596.48;1701259;83;21039;-55
2022/08/31 04:43:48;;;;;;;2.70;1.10;;;;;;;17.55;100.00;99587.59;1682885;83;21784;-55
2022/08/31 04:46:14;;;;;;;2.55;1.00;;;;;;;17.79;100.00;99587.02;1700818;83;21120;-55
2022/08/31 04:48:41;;;;;;;3.95;1.10;;;;;;;17.99;100.00;99595.81;1700745;83;21715;-55
2022/08/31 04:51:11;;;;;;;1.45;0.90;;;;;;;18.14;100.00;99595.05;1706288;82;21063;-56
2022/08/31 04:53:38;;;;;;;1.85;0.93;;;;;;;18.23;100.00;99597.52;1699807;83;21125;-56
2022/08/31 04:56:14;;;;;;;2.37;1.20;;;;;;;18.25;100.00;99600.50;1694247;83;21002;-55
2022/08/31 04:58:47;;;;;;;3.15;0.93;;;;;;;18.26;100.00;99601.36;1698350;82;22316;-55
2022/08/31 05:01:16;;;;;;;1.85;1.00;;;;;;;18.25;100.00;99595.05;1703022;83;20982;-55
2022/08/31 05:03:57;;;;;;;3.65;0.90;;;;;;;18.24;100.00;99596.03;1611405;83;20971;-55
2022/08/31 05:06:26;;;;;;;2.67;1.02;;;;;;;18.25;100.00;99601.86;1699616;82;21065;-55
2022/08/31 05:08:56;;;;;;;1.98;1.07;;;;;;;18.27;100.00;99597.66;1696023;83;21140;-55
2022/08/31 05:11:23;;;;;;;2.70;1.00;;;;;;;18.31;100.00;99603.20;1687971;83;21144;-52
2022/08/31 05:13:52;;;;;;;1.10;0.90;;;;;;;18.32;100.00;99603.08;1691928;83;21062;-53
2022/08/31 05:16:19;;;;;;;2.72;1.10;;;;;;;18.34;100.00;99605.19;1667304;83;21057;-53
2022/08/31 05:18:48;;;;;;;4.90;1.20;;;;;;;18.36;100.00;99604.58;1724905;80;21059;-55
2022/08/31 05:21:27;;;;;;;7.53;1.10;;;;;;;18.39;100.00;99605.66;1752977;80;21502;-52
2022/08/31 05:23:50;;;;;;;1.98;1.05;;;;;;;18.42;100.00;99604.06;1753963;80;21061;-54
2022/08/31 05:26:18;;;;;;;2.58;1.10;;;;;;;18.46;100.00;99601.92;1750533;80;21129;-55
2022/08/31 05:28:45;;;;;;;1.15;0.90;;;;;;;18.49;100.00;99601.19;1752020;80;20917;-54
2022/08/31 05:31:11;;;;;;;1.70;1.00;;;;;;;18.53;100.00;99603.17;1755316;80;21390;-51
2022/08/31 05:33:40;;;;;;;1.70;1.00;;;;;;;18.57;100.00;99603.30;1753427;80;21279;-52
2022/08/31 05:36:07;;;;;;;1.47;0.80;;;;;;;18.57;100.00;99600.58;1710773;81;21355;-49
2022/08/31 05:38:34;;;;;;;2.33;1.20;;;;;;;18.63;100.00;99608.77;1710121;82;22504;-51
2022/08/31 05:41:00;;;;;;;1.32;0.90;;;;;;;18.70;100.00;99606.75;1754032;80;20983;-52
2022/08/31 05:43:27;;;;;;;1.27;1.17;;;;;;;18.77;100.00;99605.23;1759328;80;20871;-55
2022/08/31 05:45:53;;;;;;;1.55;1.20;;;;;;;18.84;100.00;99600.99;1748564;80;21363;-56
2022/08/31 05:48:21;;;;;;;1.40;1.02;;;;;;;18.90;100.00;99595.01;1682079;83;20938;-53
2022/08/31 05:50:48;;;;;;;4.03;1.50;;;;;;;18.97;100.00;99604.89;1753716;80;21055;-51
2022/08/31 05:53:15;;;;;;;2.12;1.57;;;;;;;19.02;100.00;99603.16;1754099;80;20892;-52
2022/08/31 05:55:41;;;;;;;3.25;1.45;;;;;;;19.08;100.00;99603.48;1751737;80;21777;-51
2022/08/31 05:58:08;;;;;;;3.17;1.65;;;;;;;19.15;100.00;99599.23;1755751;80;20868;-54
2022/08/31 06:00:38;;;;;;;6.20;1.95;;;;;;;19.21;100.00;99601.95;1754523;80;20922;-53
2022/08/31 06:03:06;;;;;;;1.55;1.42;;;;;;;19.26;100.00;99607.37;1753578;80;21138;-51
2022/08/31 06:05:33;;;;;;;3.17;1.35;;;;;;;19.33;100.00;99604.97;1729689;80;20924;-52
2022/08/31 06:07:59;;;;;;;3.85;1.42;;;;;;;19.36;100.00;99612.91;1752601;80;20886;-52
2022/08/31 06:10:26;;;;;;;2.08;1.52;;;;;;;19.41;100.00;99611.12;1757457;80;20985;-52
2022/08/31 06:12:53;;;;;;;2.00;1.55;;;;;;;19.45;100.00;99607.14;1756552;80;20954;-52
2022/08/31 06:15:20;;;;;;;1.75;0.90;;;;;;;19.47;100.00;99599.23;1746340;80;21790;-52
2022/08/31 06:17:46;;;;;;;4.47;1.12;;;;;;;19.47;100.00;99596.96;1746814;80;21780;-51
2022/08/31 06:20:14;;;;;;;2.12;1.07;;;;;;;19.49;100.00;99601.30;1743596;80;21417;-54
2022/08/31 06:22:45;;;;;;;2.98;1.00;;;;;;;19.52;100.00;99598.81;1671820;83;21473;-51
2022/08/31 06:25:13;;;;;;;3.92;0.90;;;;;;;19.54;100.00;99599.55;1676521;83;21097;-53
2022/08/31 06:30:08;;;;;;;9.80;1.27;;;;;;;19.62;100.00;99597.01;1840855;75;28031;-52
2022/08/31 06:32:35;;;;;;;2.12;0.60;;;;;;;19.64;100.00;99596.38;1819783;77;20931;-52
2022/08/31 06:35:04;;;;;;;2.45;0.60;;;;;;;19.72;100.00;99602.53;1817590;77;21157;-52
2022/08/31 06:37:47;;;;;;;2.85;0.40;;;;;;;19.80;100.00;99608.17;1738580;80;26344;-53
2022/08/31 06:40:16;;;;;;;0.88;0.57;;;;;;;19.90;100.00;99596.81;1788390;77;21546;-51
2022/08/31 06:43:03;;;;;;;0.98;0.60;;;;;;;19.99;100.00;99602.78;1816061;77;21152;-50
2022/08/31 06:45:34;;;;;;;0.98;0.50;;;;;;;20.07;100.00;99597.53;1812005;77;21013;-53
2022/08/31 06:48:03;;;;;;;0.75;0.47;;;;;;;20.12;100.00;99593.00;1822271;77;21256;-51
2022/08/31 06:50:29;;;;;;;1.00;0.50;;;;;;;20.17;100.00;99597.53;1824115;77;21334;-52
2022/08/31 06:52:57;;;;;;;4.28;0.50;;;;;;;20.23;100.00;99601.11;1817685;77;22275;-50
2022/08/31 06:55:38;;;;;;;0.70;0.40;;;;;;;20.30;100.00;99594.08;1757183;77;21133;-53
2022/08/31 06:58:22;;;;;;;1.10;0.50;;;;;;;20.41;100.00;99595.88;1827302;76;21512;-52
2022/08/31 07:01:12;;;;;;;0.40;0.40;;;;;;;20.52;100.00;99593.86;1826190;76;21520;-53
2022/08/31 07:03:48;;;;;;;0.70;0.50;;;;;;;20.63;100.00;99604.69;1773329;76;21764;-53
2022/08/31 07:06:21;;;;;;;2.00;0.40;;;;;;;20.71;100.00;99605.34;1794816;76;21476;-52
2022/08/31 07:08:53;;;;;;;0.50;0.40;;;;;;;20.77;100.00;99596.06;1828445;76;21070;-52
2022/08/31 07:11:33;;;;;;;0.30;0.30;;;;;;;20.86;100.00;99594.84;1821052;76;21053;-54
2022/08/31 07:14:00;;;;;;;0.47;0.40;;;;;;;20.92;100.00;99599.27;1822825;76;21094;-51
2022/08/31 07:16:28;;;;;;;1.90;0.30;;;;;;;20.96;100.00;99600.69;1762420;79;21125;-49
2022/08/31 07:18:57;;;;;;;0.55;0.40;;;;;;;20.99;100.00;99593.58;1758963;79;21051;-51
2022/08/31 07:21:30;;;;;;;0.78;0.40;;;;;;;21.01;100.00;99597.55;1758507;79;21121;-55
2022/08/31 07:23:59;;;;;;;0.47;0.37;;;;;;;21.01;100.00;99598.38;1752315;79;21075;-52
2022/08/31 07:26:30;;;;;;;0.53;0.37;;;;;;;20.99;100.00;99599.05;1765466;79;21784;-55
2022/08/31 07:28:58;;;;;;;0.40;0.40;;;;;;;21.02;100.00;99605.58;1757162;79;21663;-55
2022/08/31 07:31:36;;;;;;;0.35;0.33;;;;;;;21.06;100.00;99602.06;1735775;80;21072;-55
2022/08/31 07:33:56;;;;;;;1.72;0.40;;;;;;;21.14;100.00;99600.34;1755385;79;21126;-55
2022/08/31 07:36:24;;;;;;;0.50;0.40;;;;;;;21.25;100.00;99599.36;1758851;79;21053;-54
2022/08/31 07:44:27;;;;;;;0.68;0.30;;;;;;;21.60;100.00;99594.63;1761935;79;20978;-54
2022/08/31 07:46:54;;;;;;;1.42;0.40;;;;;;;21.65;100.00;99595.54;1760353;79;21101;-54
2022/08/31 07:49:23;;;;;;;1.65;0.30;;;;;;;21.61;100.00;99595.46;1758590;79;21066;-54
2022/08/31 07:51:51;;;;;;;0.68;0.40;;;;;;;21.59;100.00;99594.27;1761002;79;21170;-54
2022/08/31 07:54:28;;;;;;;1.20;0.30;;;;;;;21.55;100.00;99594.19;1755380;79;21052;-54
2022/08/31 07:57:02;;;;;;;0.40;0.30;;;;;;;21.52;100.00;99599.45;1755626;79;21219;-55
2022/08/31 07:59:31;;;;;;;0.42;0.30;;;;;;;21.52;100.00;99599.45;1755164;79;21098;-54
2022/08/31 08:02:02;;;;;;;0.55;0.30;;;;;;;21.51;100.00;99607.83;1759687;79;21300;-54
2022/08/31 08:04:29;;;;;;;0.20;0.20;;;;;;;21.51;100.00;99592.77;1755822;80;21126;-54
2022/08/31 08:07:16;;;;;;;0.70;0.30;;;;;;;21.48;100.00;99596.66;1756383;79;21038;-53
2022/08/31 08:09:54;;;;;;;0.42;0.30;;;;;;;21.48;100.00;99586.20;1760083;79;21134;-53
2022/08/31 08:12:41;;;;;;;1.60;0.30;;;;;;;21.58;100.00;99587.56;1758419;79;21410;-53
2022/08/31 08:15:10;;;;;;;0.42;0.20;;;;;;;21.69;100.00;99581.38;1757181;79;21066;-53
2022/08/31 08:17:48;;;;;;;0.42;0.30;;;;;;;21.80;100.00;99590.80;1704699;82;21932;-55
2022/08/31 08:20:17;;;;;;;0.57;0.30;;;;;;;21.79;100.00;99583.59;1784447;78;21534;-55
2022/08/31 08:22:43;;;;;;;0.30;0.30;;;;;;;21.73;100.00;99588.81;1759533;78;21501;-56
2022/08/31 08:25:28;;;;;;;2.25;0.20;;;;;;;21.67;100.00;99583.94;1760436;80;21117;-55
2022/08/31 08:28:10;;;;;;;0.20;0.20;;;;;;;21.62;100.00;99587.10;1763766;79;21054;-53
2022/08/31 08:30:39;;;;;;;0.30;0.20;;;;;;;21.61;100.00;99585.88;1778716;78;21080;-54
2022/08/31 08:33:06;;;;;;;1.50;0.30;;;;;;;21.58;100.00;99580.72;1740740;78;20920;-54
2022/08/31 08:35:34;;;;;;;0.60;0.30;;;;;;;21.55;100.00;99575.02;1779309;78;21109;-54
2022/08/31 08:38:01;;;;;;;0.20;0.20;;;;;;;21.58;100.00;99573.87;1779690;78;21062;-53
2022/08/31 08:40:43;;;;;;;0.20;0.20;;;;;;;21.61;100.00;99565.33;1777872;78;20900;-53
2022/08/31 08:43:14;;;;;;;0.35;0.20;;;;;;;21.73;100.00;99561.42;1780761;78;21195;-52
2022/08/31 08:45:40;;;;;;;0.55;0.20;;;;;;;21.90;100.00;99572.97;1778667;78;20971;-54
2022/08/31 08:48:08;;;;;;;0.47;0.30;;;;;;;22.04;100.00;99575.74;1777783;78;20907;-53
2022/08/31 08:50:36;;;;;;;1.17;0.30;;;;;;;22.12;100.00;99566.25;1783237;78;20962;-53
2022/08/31 08:53:04;;;;;;;0.60;0.30;;;;;;;22.11;100.00;99563.19;1779078;78;20942;-52
2022/08/31 08:55:36;;;;;;;0.42;0.30;;;;;;;22.06;100.00;99566.87;1783847;78;21366;-54
2022/08/31 08:58:09;;;;;;;0.40;0.30;;;;;;;22.04;100.00;99563.41;1779646;78;21043;-52
2022/08/31 09:00:41;;;;;;;1.22;0.20;;;;;;;22.05;100.00;99570.62;1767067;78;20943;-52
2022/08/31 09:03:20;;;;;;;0.37;0.30;;;;;;;22.03;100.00;99565.28;1779819;78;21322;-53
2022/08/31 09:06:08;;;;;;;0.40;0.30;;;;;;;22.00;100.00;99566.11;1745944;78;21047;-53
2022/08/31 09:09:17;;;;;;;2.05;0.55;;;;;;;21.94;100.00;99561.21;1785437;78;21826;-52
2022/08/31 09:12:12;;;;;;;0.93;0.30;;;;;;;21.90;100.00;99560.64;1777963;78;21125;-52
2022/08/31 09:15:17;;;;;;;0.23;0.20;;;;;;;21.96;100.00;99560.02;1775790;78;21081;-52
2022/08/31 09:18:02;;;;;;;1.10;0.30;;;;;;;22.04;100.00;99556.05;1778761;78;22158;-53
2022/08/31 09:20:32;;;;;;;0.42;0.30;;;;;;;22.11;100.00;99550.85;1773712;78;21114;-53
2022/08/31 09:22:59;;;;;;;2.17;0.30;;;;;;;22.15;100.00;99564.59;1779159;78;21269;-53
2022/08/31 09:25:50;;;;;;;3.22;0.72;;;;;;;22.18;100.00;99569.78;1779167;78;21078;-52
2022/08/31 09:28:37;;;;;;;0.40;0.20;;;;;;;22.20;100.00;99563.65;1720837;79;21297;-52
2022/08/31 09:31:04;;;;;;;0.65;0.30;;;;;;;22.22;100.00;99558.85;1768235;78;22188;-53
2022/08/31 09:33:33;;;;;;;1.50;0.30;;;;;;;22.31;100.00;99562.05;1764760;78;21111;-53
2022/08/31 09:36:21;;;;;;;0.40;0.30;;;;;;;22.38;100.00;99560.92;1757302;80;21426;-53
2022/08/31 09:38:48;;;;;;;0.40;0.30;;;;;;;22.41;100.00;99561.49;1755409;80;21431;-53
2022/08/31 09:41:31;;;;;;;0.33;0.20;;;;;;;22.47;100.00;99562.23;1761001;79;21149;-52
2022/08/31 09:44:33;;;;;;;0.53;0.20;;;;;;;22.52;100.00;99559.05;1767373;79;21023;-53
2022/08/31 09:47:04;;;;;;;0.30;0.20;;;;;;;22.54;100.00;99557.02;1762684;79;21020;-54
2022/08/31 09:49:35;;;;;;;0.60;0.30;;;;;;;22.59;100.00;99557.41;1764275;78;21228;-53
2022/08/31 09:55:12;;;;;;;0.30;0.20;;;;;;;22.63;100.00;99555.55;1767546;78;21102;-53
2022/08/31 09:55:18;;;;;;;0.55;0.30;;;;;;;22.65;100.00;99544.43;1763286;79;21107;-52
2022/08/31 09:57:57;;;;;;;0.45;0.30;;;;;;;22.64;100.00;99546.31;1763420;79;21162;-53
2022/08/31 10:00:40;;;;;;;0.85;0.20;;;;;;;22.68;100.00;99546.01;1768788;79;21015;-53
2022/08/31 10:03:23;;;;;;;0.50;0.30;;;;;;;22.75;100.00;99544.39;1779616;78;21983;-51
2022/08/31 10:05:50;;;;;;;1.23;0.20;;;;;;;22.82;100.00;99552.35;1757677;79;20968;-52
2022/08/31 10:08:28;;;;;;;0.30;0.30;;;;;;;22.83;100.00;99552.20;1755814;79;21115;-53
2022/08/31 10:10:57;;;;;;;0.20;0.20;;;;;;;22.80;100.00;99555.75;1758809;80;22331;-50
2022/08/31 10:13:41;;;;;;;0.30;0.20;;;;;;;22.74;100.00;99553.61;1766007;78;20972;-51
2022/08/31 10:16:29;;;;;;;0.17;0.17;;;;;;;22.71;100.00;99557.55;1738786;80;21138;-52
2022/08/31 10:19:15;;;;;;;0.23;0.20;;;;;;;22.69;100.00;99540.88;1760288;79;21707;-51
2022/08/31 10:22:01;;;;;;;0.20;0.17;;;;;;;22.70;100.00;99543.47;1762531;79;21098;-51
2022/08/31 10:24:47;;;;;;;0.37;0.23;;;;;;;22.81;100.00;99538.27;1763873;79;21436;-53
2022/08/31 10:27:19;;;;;;;0.40;0.30;;;;;;;22.94;100.00;99551.11;1767118;79;21059;-51
2022/08/31 10:29:58;;;;;;;0.30;0.20;;;;;;;23.02;100.00;99555.30;1769407;78;21064;-52
2022/08/31 10:32:39;;;;;;;0.30;0.30;;;;;;;22.98;100.00;99557.48;1779639;78;21077;-51
2022/08/31 10:35:30;;;;;;;2.05;0.30;;;;;;;22.91;100.00;99562.39;1778734;78;21596;-51
2022/08/31 10:38:17;;;;;;;0.30;0.30;;;;;;;22.89;100.00;99557.05;1777649;79;21739;-50
2022/08/31 10:41:08;;;;;;;1.17;0.30;;;;;;;22.87;100.00;99547.27;1755504;79;21081;-50
2022/08/31 10:43:49;;;;;;;0.88;0.20;;;;;;;22.82;100.00;99541.38;1778653;78;21576;-51
2022/08/31 10:46:16;;;;;;;0.23;0.23;;;;;;;22.85;100.00;99533.70;1772138;78;21659;-52
2022/08/31 10:48:45;;;;;;;0.75;0.20;;;;;;;22.93;100.00;99527.42;1780403;78;21149;-50
2022/08/31 10:51:19;;;;;;;0.30;0.30;;;;;;;23.01;100.00;99528.87;1781236;79;21073;-51
2022/08/31 10:54:20;;;;;;;0.20;0.20;;;;;;;23.09;100.00;99519.83;1782058;79;21018;-52
2022/08/31 10:57:13;;;;;;;0.65;0.20;;;;;;;23.19;100.00;99520.61;1780579;78;21152;-52
2022/08/31 10:59:45;;;;;;;0.50;0.30;;;;;;;23.31;100.00;99527.55;1778469;78;21192;-50
2022/08/31 11:02:40;;;;;;;0.55;0.35;;;;;;;23.32;100.00;99526.02;1774111;78;22017;-52
2022/08/31 11:05:59;;;;;;;0.25;0.20;;;;;;;23.31;100.00;99527.55;1776313;79;21062;-51
2022/08/31 11:08:47;;;;;;;0.20;0.20;;;;;;;23.24;100.00;99527.33;1781780;78;21634;-51
2022/08/31 11:11:15;;;;;;;0.88;0.20;;;;;;;23.22;100.00;99520.30;1775693;78;21248;-51
2022/08/31 11:13:59;;;;;;;1.00;0.20;;;;;;;23.18;100.00;99525.74;1756252;79;21567;-50
2022/08/31 11:16:52;;;;;;;2.22;0.25;;;;;;;23.14;100.00;99528.47;1775102;78;21610;-51
2022/08/31 11:19:40;;;;;;;0.70;0.28;;;;;;;23.14;100.00;99533.96;1780561;78;21461;-51
2022/08/31 11:22:27;;;;;;;1.50;0.20;;;;;;;23.10;100.00;99544.39;1780030;78;20944;-53
2022/08/31 11:25:12;;;;;;;0.90;0.30;;;;;;;23.05;100.00;99534.91;1779499;78;21150;-51
2022/08/31 11:27:43;;;;;;;1.37;0.30;;;;;;;23.00;100.00;99532.12;1782939;78;21355;-51
2022/08/31 11:30:25;;;;;;;0.30;0.30;;;;;;;23.00;100.00;99529.88;1771472;79;20876;-51
2022/08/31 11:32:54;;;;;;;0.33;0.30;;;;;;;23.06;100.00;99530.61;1739107;80;21069;-50
2022/08/31 11:35:57;;;;;;;0.40;0.30;;;;;;;23.13;100.00;99522.63;1769583;78;20994;-51
2022/08/31 11:38:53;;;;;;;0.30;0.30;;;;;;;23.20;100.00;99530.58;1769035;79;21228;-51
2022/08/31 11:41:45;;;;;;;0.40;0.30;;;;;;;23.25;100.00;99520.82;1768224;78;20912;-52
2022/08/31 11:44:09;;;;;;;2.40;0.30;;;;;;;23.30;100.00;99526.72;1767140;80;21297;-51
2022/08/31 11:46:42;;;;;;;0.33;0.30;;;;;;;23.37;100.00;99520.92;1740915;80;20931;-51
2022/08/31 11:49:09;;;;;;;0.55;0.30;;;;;;;23.44;100.00;99514.78;1768423;78;20891;-49
2022/08/31 11:51:44;;;;;;;0.20;0.20;;;;;;;23.50;100.00;99515.53;1770043;78;21741;-50
2022/08/31 11:54:25;;;;;;;0.85;0.30;;;;;;;23.52;100.00;99513.49;1766939;78;20967;-53
2022/08/31 11:56:55;;;;;;;0.72;0.20;;;;;;;23.49;100.00;99509.68;1755238;80;21046;-52
2022/08/31 11:59:32;;;;;;;1.95;0.30;;;;;;;23.43;100.00;99516.66;1769579;78;20947;-51
2022/08/31 12:02:21;;;;;;;1.07;0.30;;;;;;;23.35;100.00;99518.84;1769293;78;21457;-52
2022/08/31 12:04:56;;;;;;;0.40;0.20;;;;;;;23.27;100.00;99513.80;1761243;78;21194;-52